Time;durP1;ratioP1;P1;durP2;ratioP2;P2;SDS_P1;SDS_P2;PMS_P1;PMS_P2;Temp;Humidity;BMP_temperature;BMP_pressure;BME280_temperature;BME280_humidity;BME280_pressure;Samples;Min_cycle;Max_cycle;Signal;HPM_P1;HPM_P2
2021/11/16 00:01:08;;;;;;;6.78;6.18;;;;;;;;;;4953319;29;20075;-71
2021/11/16 00:03:34;;;;;;;6.95;6.35;;;;;;;;;;4935814;29;20516;-72
2021/11/16 00:06:00;;;;;;;6.60;5.97;;;;;;;;;;4953431;28;20081;-72
2021/11/16 00:08:25;;;;;;;7.13;6.43;;;;;;;;;;4952762;29;20523;-71
2021/11/16 00:10:51;;;;;;;6.07;5.57;;;;;;;;;;4953307;29;20053;-71
2021/11/16 00:13:17;;;;;;;6.88;6.25;;;;;;;;;;4951099;29;20358;-73
2021/11/16 00:15:44;;;;;;;6.38;5.90;;;;;;;;;;4952917;29;20046;-72
2021/11/16 00:18:11;;;;;;;4.43;4.03;;;;;;;;;;4953215;29;20420;-72
2021/11/16 00:20:42;;;;;;;7.35;6.65;;;;;;;;;;4953388;29;20181;-72
2021/11/16 00:23:15;;;;;;;5.68;5.18;;;;;;;;;;4935198;29;20792;-72
2021/11/16 00:25:40;;;;;;;6.60;5.97;;;;;;;;;;4953100;29;20047;-72
2021/11/16 00:28:06;;;;;;;5.85;5.35;;;;;;;;;;4953418;29;20046;-72
2021/11/16 00:30:31;;;;;;;5.40;5.00;;;;;;;;;;4951161;29;20038;-73
2021/11/16 00:32:57;;;;;;;5.68;5.18;;;;;;;;;;4952960;29;20074;-73
2021/11/16 00:35:23;;;;;;;5.32;4.95;;;;;;;;;;4951176;29;20055;-73
2021/11/16 00:37:49;;;;;;;6.38;5.88;;;;;;;;;;4934908;29;20063;-72
2021/11/16 00:40:19;;;;;;;6.70;6.10;;;;;;;;;;4953224;29;20053;-71
2021/11/16 00:42:47;;;;;;;6.47;5.93;;;;;;;;;;4952956;29;20062;-72
2021/11/16 00:45:15;;;;;;;6.38;5.88;;;;;;;;;;4952462;29;20055;-72
2021/11/16 00:47:42;;;;;;;6.22;5.72;;;;;;;;;;4966461;28;20050;-71
2021/11/16 00:50:09;;;;;;;6.78;6.20;;;;;;;;;;4972217;28;20066;-72
2021/11/16 00:52:36;;;;;;;6.78;5.32;;;;;;;;;;4970128;28;20043;-71
2021/11/16 00:55:02;;;;;;;6.15;5.53;;;;;;;;;;4972619;28;20103;-71
2021/11/16 00:57:28;;;;;;;6.25;5.65;;;;;;;;;;4968532;28;20052;-72
2021/11/16 00:59:54;;;;;;;6.85;6.20;;;;;;;;;;4971369;28;20476;-71
2021/11/16 01:02:19;;;;;;;6.53;5.93;;;;;;;;;;4972232;28;20051;-72
2021/11/16 01:04:49;;;;;;;6.95;6.32;;;;;;;;;;4972155;28;20049;-73
2021/11/16 01:07:16;;;;;;;6.65;5.60;;;;;;;;;;4971689;28;20131;-72
2021/11/16 01:09:42;;;;;;;7.82;7.13;;;;;;;;;;4972003;28;20039;-72
2021/11/16 01:12:08;;;;;;;9.57;7.28;;;;;;;;;;4972025;28;20094;-72
2021/11/16 01:14:33;;;;;;;7.97;6.55;;;;;;;;;;4953844;28;20039;-72
2021/11/16 01:17:00;;;;;;;6.60;6.00;;;;;;;;;;4970821;28;20769;-71
2021/11/16 01:19:26;;;;;;;6.90;5.55;;;;;;;;;;4973329;28;20038;-72
2021/11/16 01:21:52;;;;;;;6.80;6.15;;;;;;;;;;4958057;28;20098;-73
2021/11/16 01:24:18;;;;;;;9.07;7.38;;;;;;;;;;4975885;28;20046;-73
2021/11/16 01:26:46;;;;;;;8.90;6.78;;;;;;;;;;4975043;28;20130;-72
2021/11/16 01:29:13;;;;;;;7.65;6.35;;;;;;;;;;4975260;28;20130;-72
2021/11/16 01:31:38;;;;;;;7.45;6.80;;;;;;;;;;4958138;28;20046;-72
2021/11/16 01:34:06;;;;;;;8.30;7.50;;;;;;;;;;4975400;28;20160;-72
2021/11/16 01:36:32;;;;;;;6.78;6.18;;;;;;;;;;4974852;28;20070;-72
2021/11/16 01:38:59;;;;;;;7.35;6.40;;;;;;;;;;4975654;28;20062;-72
2021/11/16 01:41:27;;;;;;;7.22;6.53;;;;;;;;;;4973188;28;20047;-72
2021/11/16 01:43:53;;;;;;;6.15;5.65;;;;;;;;;;4957036;28;20051;-72
2021/11/16 01:46:19;;;;;;;7.15;6.35;;;;;;;;;;4974926;28;20054;-72
2021/11/16 01:48:53;;;;;;;7.13;5.97;;;;;;;;;;4975014;28;20105;-72
2021/11/16 01:51:22;;;;;;;7.15;6.47;;;;;;;;;;4974563;28;20073;-72
2021/11/16 01:53:50;;;;;;;7.55;6.85;;;;;;;;;;4975293;28;20039;-73
2021/11/16 01:56:16;;;;;;;9.48;6.63;;;;;;;;;;4975509;28;20104;-71
2021/11/16 01:58:42;;;;;;;7.32;6.55;;;;;;;;;;4957485;28;20524;-71
2021/11/16 02:01:07;;;;;;;7.38;6.68;;;;;;;;;;4946689;28;20078;-72
2021/11/16 02:03:33;;;;;;;7.20;5.90;;;;;;;;;;4955646;29;20132;-72
2021/11/16 02:06:19;;;;;;;7.30;5.80;;;;;;;;;;4955413;29;20079;-73
2021/11/16 02:08:45;;;;;;;7.47;6.57;;;;;;;;;;4956244;29;20043;-71
2021/11/16 02:11:11;;;;;;;6.18;5.65;;;;;;;;;;4942984;29;20130;-72
2021/11/16 02:13:36;;;;;;;6.75;6.20;;;;;;;;;;4936492;29;20246;-72
2021/11/16 02:16:02;;;;;;;7.80;6.82;;;;;;;;;;4936669;29;20044;-73
2021/11/16 02:18:28;;;;;;;8.85;6.97;;;;;;;;;;4936055;29;20031;-71
2021/11/16 02:20:53;;;;;;;6.32;5.82;;;;;;;;;;4936329;29;20398;-74
2021/11/16 02:23:19;;;;;;;7.07;6.45;;;;;;;;;;4936283;29;20126;-73
2021/11/16 02:25:48;;;;;;;7.40;6.20;;;;;;;;;;4936684;29;20048;-72
2021/11/16 02:28:18;;;;;;;5.95;5.35;;;;;;;;;;4935162;29;20047;-72
2021/11/16 02:30:45;;;;;;;6.55;5.82;;;;;;;;;;4928232;29;20171;-72
2021/11/16 02:33:11;;;;;;;6.82;6.15;;;;;;;;;;4936318;29;20131;-71
2021/11/16 02:35:37;;;;;;;6.65;5.80;;;;;;;;;;4936165;29;20047;-72
2021/11/16 02:38:03;;;;;;;7.45;6.75;;;;;;;;;;4936163;29;20044;-72
2021/11/16 02:40:29;;;;;;;7.95;7.05;;;;;;;;;;4936104;29;20521;-73
2021/11/16 02:42:56;;;;;;;7.35;6.53;;;;;;;;;;4936204;29;20039;-72
2021/11/16 02:45:23;;;;;;;7.47;6.72;;;;;;;;;;4936102;29;20126;-72
2021/11/16 02:47:49;;;;;;;6.90;6.22;;;;;;;;;;4918951;29;20039;-73
2021/11/16 02:50:16;;;;;;;7.55;6.40;;;;;;;;;;4935974;29;20054;-72
2021/11/16 02:52:41;;;;;;;7.15;6.55;;;;;;;;;;4935951;29;20074;-72
2021/11/16 02:55:08;;;;;;;7.93;7.20;;;;;;;;;;4936030;29;20845;-72
2021/11/16 02:57:34;;;;;;;9.00;7.47;;;;;;;;;;4935825;29;20523;-72
2021/11/16 03:00:05;;;;;;;8.63;7.82;;;;;;;;;;4935847;29;20040;-72
2021/11/16 03:02:31;;;;;;;5.38;4.65;;;;;;;;;;4935568;29;20425;-72
2021/11/16 03:04:56;;;;;;;7.00;6.07;;;;;;;;;;4935393;29;20044;-72
2021/11/16 03:07:38;;;;;;;7.97;7.18;;;;;;;;;;4935589;29;20043;-72
2021/11/16 03:10:05;;;;;;;7.00;6.25;;;;;;;;;;4935627;29;20043;-72
2021/11/16 03:12:31;;;;;;;6.95;5.72;;;;;;;;;;4936022;29;20130;-76
2021/11/16 03:14:58;;;;;;;8.75;7.85;;;;;;;;;;4935294;29;20050;-73
2021/11/16 03:17:25;;;;;;;6.70;5.93;;;;;;;;;;4935382;29;20048;-71
2021/11/16 03:19:51;;;;;;;8.00;6.68;;;;;;;;;;4934354;29;20067;-71
2021/11/16 03:22:17;;;;;;;8.40;6.65;;;;;;;;;;4935550;29;20051;-71
2021/11/16 03:24:43;;;;;;;9.65;6.35;;;;;;;;;;4935599;29;20048;-72
2021/11/16 03:27:12;;;;;;;7.47;6.38;;;;;;;;;;4918147;29;20085;-72
2021/11/16 03:29:44;;;;;;;9.63;7.18;;;;;;;;;;4917605;29;20142;-71
2021/11/16 03:32:13;;;;;;;6.50;5.90;;;;;;;;;;4917893;29;20134;-72
2021/11/16 03:34:47;;;;;;;7.57;6.22;;;;;;;;;;4934885;29;20050;-71
2021/11/16 03:37:14;;;;;;;8.20;6.82;;;;;;;;;;4935106;29;20099;-71
2021/11/16 03:39:40;;;;;;;6.70;5.70;;;;;;;;;;4935010;29;20067;-72
2021/11/16 03:42:06;;;;;;;8.48;5.63;;;;;;;;;;4932389;29;20075;-72
2021/11/16 03:44:33;;;;;;;6.55;5.90;;;;;;;;;;4934757;29;20074;-73
2021/11/16 03:46:59;;;;;;;9.82;6.95;;;;;;;;;;4934755;29;20039;-71
2021/11/16 03:49:24;;;;;;;6.53;5.93;;;;;;;;;;4934687;29;20126;-71
2021/11/16 03:51:50;;;;;;;7.57;6.28;;;;;;;;;;4934610;29;20134;-71
2021/11/16 03:54:15;;;;;;;7.65;6.50;;;;;;;;;;4934345;29;20126;-72
2021/11/16 03:56:41;;;;;;;8.80;7.88;;;;;;;;;;4934248;29;20130;-71
2021/11/16 03:59:09;;;;;;;7.30;4.88;;;;;;;;;;4934272;29;20419;-73
2021/11/16 04:01:35;;;;;;;9.25;8.23;;;;;;;;;;4934325;29;20059;-72
2021/11/16 04:04:02;;;;;;;7.53;6.82;;;;;;;;;;4934169;29;20394;-73
2021/11/16 04:06:28;;;;;;;7.93;6.63;;;;;;;;;;4934400;29;20048;-72
2021/11/16 04:08:53;;;;;;;6.68;6.07;;;;;;;;;;4934178;29;20039;-72
2021/11/16 04:11:19;;;;;;;7.63;6.93;;;;;;;;;;4933880;29;20642;-73
2021/11/16 04:13:46;;;;;;;8.60;7.72;;;;;;;;;;4934569;29;20047;-72
2021/11/16 04:16:12;;;;;;;8.60;7.15;;;;;;;;;;4934034;29;20056;-72
2021/11/16 04:18:38;;;;;;;9.02;8.23;;;;;;;;;;4934310;29;20040;-73
2021/11/16 04:21:04;;;;;;;9.68;7.65;;;;;;;;;;4934186;29;20043;-73
2021/11/16 04:23:30;;;;;;;7.60;6.30;;;;;;;;;;4934135;29;20055;-72
2021/11/16 04:25:56;;;;;;;8.05;6.75;;;;;;;;;;4916569;29;20044;-73
2021/11/16 04:28:21;;;;;;;7.07;6.38;;;;;;;;;;4933812;29;20040;-73
2021/11/16 04:30:48;;;;;;;9.00;6.90;;;;;;;;;;4934513;29;20047;-74
2021/11/16 04:33:15;;;;;;;7.30;6.53;;;;;;;;;;4933198;29;20046;-72
2021/11/16 04:35:42;;;;;;;8.27;6.25;;;;;;;;;;4933644;29;20109;-72
2021/11/16 04:38:10;;;;;;;8.85;7.05;;;;;;;;;;4933775;29;20779;-73
2021/11/16 04:40:40;;;;;;;8.95;7.07;;;;;;;;;;4933716;29;20086;-72
2021/11/16 04:43:14;;;;;;;8.63;6.72;;;;;;;;;;4932056;29;20098;-72
2021/11/16 04:45:41;;;;;;;7.90;6.78;;;;;;;;;;4933619;29;20036;-73
2021/11/16 04:48:19;;;;;;;7.30;6.53;;;;;;;;;;4932059;29;20500;-71
2021/11/16 05:04:10;;;;;;;7.85;6.90;;;;;;;;;;4933464;29;20051;-71
2021/11/16 05:06:35;;;;;;;8.60;6.95;;;;;;;;;;4933392;29;20063;-72
2021/11/16 05:09:01;;;;;;;11.35;8.02;;;;;;;;;;4933238;29;20042;-73
2021/11/16 05:11:27;;;;;;;9.45;8.15;;;;;;;;;;4933233;29;20051;-72
2021/11/16 05:13:53;;;;;;;8.75;7.00;;;;;;;;;;4915799;29;20040;-72
2021/11/16 05:16:21;;;;;;;9.98;8.13;;;;;;;;;;4932888;29;20521;-73
2021/11/16 05:18:47;;;;;;;11.57;8.20;;;;;;;;;;4933033;29;20054;-72
2021/11/16 05:21:14;;;;;;;9.98;7.05;;;;;;;;;;4933558;29;20428;-72
2021/11/16 05:23:50;;;;;;;9.00;7.25;;;;;;;;;;4933238;29;20555;-73
2021/11/16 05:26:16;;;;;;;10.55;8.23;;;;;;;;;;4933708;29;20110;-72
2021/11/16 05:28:42;;;;;;;10.50;8.25;;;;;;;;;;4933302;29;20040;-72
2021/11/16 05:31:07;;;;;;;8.45;7.07;;;;;;;;;;4932944;29;20039;-73
2021/11/16 05:33:33;;;;;;;9.65;7.85;;;;;;;;;;4932692;29;20051;-73
2021/11/16 05:35:59;;;;;;;10.98;7.55;;;;;;;;;;4932999;29;20123;-73
2021/11/16 05:38:31;;;;;;;8.73;7.78;;;;;;;;;;4932592;29;20044;-73
2021/11/16 05:40:57;;;;;;;8.63;7.07;;;;;;;;;;4933191;29;20504;-75
2021/11/16 05:43:23;;;;;;;10.50;7.90;;;;;;;;;;4932876;29;20059;-72
2021/11/16 05:45:49;;;;;;;9.05;6.57;;;;;;;;;;4933243;29;20040;-72
2021/11/16 05:48:15;;;;;;;11.82;8.30;;;;;;;;;;4933178;29;20070;-72
2021/11/16 05:50:41;;;;;;;9.85;7.05;;;;;;;;;;4933138;29;20067;-72
2021/11/16 05:53:08;;;;;;;8.93;7.00;;;;;;;;;;4915891;29;20138;-72
2021/11/16 05:55:35;;;;;;;11.93;7.35;;;;;;;;;;4933085;29;20099;-73
2021/11/16 05:58:02;;;;;;;9.77;7.35;;;;;;;;;;4933027;29;20111;-72
2021/11/16 06:00:27;;;;;;;10.88;7.72;;;;;;;;;;4932813;29;20051;-71
2021/11/16 06:02:53;;;;;;;8.48;6.80;;;;;;;;;;4933086;29;20036;-71
2021/11/16 06:05:20;;;;;;;10.05;7.32;;;;;;;;;;4934366;29;20532;-72
2021/11/16 06:07:46;;;;;;;9.88;7.78;;;;;;;;;;4936308;29;20051;-73
2021/11/16 06:10:12;;;;;;;9.23;8.23;;;;;;;;;;4936333;29;20504;-73
2021/11/16 06:12:41;;;;;;;10.00;7.70;;;;;;;;;;4936215;29;20035;-72
2021/11/16 06:15:07;;;;;;;7.90;7.18;;;;;;;;;;4918491;29;20051;-73
2021/11/16 06:17:33;;;;;;;9.27;8.35;;;;;;;;;;4936137;29;20046;-72
2021/11/16 06:20:00;;;;;;;7.53;5.50;;;;;;;;;;4936314;29;20416;-72
2021/11/16 06:22:26;;;;;;;9.35;7.78;;;;;;;;;;4934727;29;20147;-72
2021/11/16 06:24:51;;;;;;;9.40;7.45;;;;;;;;;;4935959;29;20134;-74
2021/11/16 06:27:17;;;;;;;11.02;6.80;;;;;;;;;;4936362;29;20044;-72
2021/11/16 06:29:43;;;;;;;9.30;7.65;;;;;;;;;;4935261;29;20102;-71
2021/11/16 06:32:10;;;;;;;9.82;6.97;;;;;;;;;;4935887;29;20095;-72
2021/11/16 06:34:36;;;;;;;8.88;6.82;;;;;;;;;;4935771;29;20102;-71
2021/11/16 06:37:03;;;;;;;8.68;7.72;;;;;;;;;;4935938;29;20501;-71
2021/11/16 06:39:29;;;;;;;8.52;7.68;;;;;;;;;;4935836;29;20122;-71
2021/11/16 06:41:59;;;;;;;8.77;7.80;;;;;;;;;;4935815;29;20134;-71
2021/11/16 06:44:25;;;;;;;11.02;9.32;;;;;;;;;;4935559;29;20453;-72
2021/11/16 06:46:54;;;;;;;8.50;7.47;;;;;;;;;;4935945;29;20047;-72
2021/11/16 06:49:20;;;;;;;8.32;7.40;;;;;;;;;;4935015;29;20055;-72
2021/11/16 06:51:48;;;;;;;13.50;7.88;;;;;;;;;;4935567;29;20190;-71
2021/11/16 06:54:19;;;;;;;10.65;7.60;;;;;;;;;;4935581;29;20046;-72
2021/11/16 06:56:48;;;;;;;11.73;9.32;;;;;;;;;;4935858;29;20107;-71
2021/11/16 06:59:14;;;;;;;10.63;8.10;;;;;;;;;;4935414;29;20576;-73
2021/11/16 07:01:40;;;;;;;9.38;7.78;;;;;;;;;;4918057;29;20043;-72
2021/11/16 07:04:11;;;;;;;11.15;8.48;;;;;;;;;;4917973;29;20118;-72
2021/11/16 07:06:43;;;;;;;12.95;8.70;;;;;;;;;;4934002;29;20044;-71
2021/11/16 07:09:10;;;;;;;10.63;7.50;;;;;;;;;;4935267;29;20047;-71
2021/11/16 07:11:54;;;;;;;10.30;7.82;;;;;;;;;;4933867;29;20099;-72
2021/11/16 07:14:26;;;;;;;10.73;7.80;;;;;;;;;;4934954;29;20532;-71
2021/11/16 07:16:54;;;;;;;11.77;8.63;;;;;;;;;;4933168;29;20424;-72
2021/11/16 07:19:35;;;;;;;15.98;9.40;;;;;;;;;;4935138;29;20071;-72
2021/11/16 07:22:06;;;;;;;12.52;8.88;;;;;;;;;;4935126;29;20054;-72
2021/11/16 07:24:38;;;;;;;10.07;8.05;;;;;;;;;;4934890;29;20043;-71
2021/11/16 07:27:07;;;;;;;11.65;8.32;;;;;;;;;;4934952;29;20051;-72
2021/11/16 07:29:41;;;;;;;10.60;8.30;;;;;;;;;;4933630;29;20067;-72
2021/11/16 07:32:11;;;;;;;12.15;8.27;;;;;;;;;;4935083;29;20138;-73
2021/11/16 07:34:38;;;;;;;11.73;9.15;;;;;;;;;;4934667;29;20083;-72
2021/11/16 07:37:10;;;;;;;11.25;8.32;;;;;;;;;;4934824;29;20421;-72
2021/11/16 07:39:59;;;;;;;13.23;8.63;;;;;;;;;;4934827;29;20043;-72
2021/11/16 07:42:30;;;;;;;15.45;8.60;;;;;;;;;;4934803;29;20052;-72
2021/11/16 07:44:58;;;;;;;;;;;;;;;;;;4918056;29;20047;-72
2021/11/16 07:47:46;;;;;;;9.95;6.80;;;;;;;;;;4934628;29;20323;-71
2021/11/16 07:50:34;;;;;;;9.63;7.50;;;;;;;;;;4934170;29;20070;-72
2021/11/16 07:53:13;;;;;;;11.43;8.18;;;;;;;;;;4931209;29;20048;-73
2021/11/16 07:55:42;;;;;;;10.50;8.05;;;;;;;;;;4935561;28;20331;-72
2021/11/16 07:58:10;;;;;;;11.93;8.45;;;;;;;;;;4955430;28;20083;-72
2021/11/16 08:00:39;;;;;;;13.35;8.63;;;;;;;;;;4953695;29;20044;-73
2021/11/16 08:03:15;;;;;;;10.13;8.15;;;;;;;;;;4948891;28;20054;-73
2021/11/16 08:08:13;;;;;;;11.70;9.45;;;;;;;;;;4970524;28;20050;-72
2021/11/16 08:10:41;;;;;;;11.60;8.50;;;;;;;;;;4971880;28;20522;-73
2021/11/16 08:13:16;;;;;;;13.27;9.90;;;;;;;;;;4972122;28;20852;-73
2021/11/16 08:15:43;;;;;;;9.68;7.68;;;;;;;;;;4951514;29;20130;-73
2021/11/16 08:18:13;;;;;;;10.40;7.28;;;;;;;;;;4952541;29;20134;-72
2021/11/16 08:20:39;;;;;;;10.68;6.00;;;;;;;;;;4952871;29;20039;-73
2021/11/16 08:23:05;;;;;;;10.00;7.20;;;;;;;;;;4953306;29;20536;-73
2021/11/16 08:25:32;;;;;;;11.10;8.60;;;;;;;;;;4952129;29;20039;-72
2021/11/16 08:27:58;;;;;;;12.50;7.53;;;;;;;;;;4935128;29;20039;-71
2021/11/16 08:30:25;;;;;;;9.80;7.55;;;;;;;;;;4951104;29;20054;-72
2021/11/16 08:32:58;;;;;;;14.82;8.35;;;;;;;;;;4951991;29;20046;-73
2021/11/16 08:35:25;;;;;;;10.18;8.63;;;;;;;;;;4952965;29;20051;-72
2021/11/16 08:38:00;;;;;;;11.85;8.50;;;;;;;;;;4952564;29;20051;-72
2021/11/16 08:40:32;;;;;;;11.63;7.55;;;;;;;;;;4934842;29;20146;-74
2021/11/16 08:43:12;;;;;;;10.48;8.02;;;;;;;;;;4935392;29;20074;-71
2021/11/16 08:45:43;;;;;;;9.63;8.05;;;;;;;;;;4935346;29;20047;-71
2021/11/16 08:48:15;;;;;;;8.80;7.82;;;;;;;;;;4951513;29;20142;-73
2021/11/16 08:50:54;;;;;;;9.05;7.50;;;;;;;;;;4957019;28;20078;-72
2021/11/16 08:53:28;;;;;;;11.38;7.90;;;;;;;;;;4970088;28;20050;-73
2021/11/16 08:55:54;;;;;;;10.95;8.43;;;;;;;;;;4969981;28;20114;-74
2021/11/16 08:58:24;;;;;;;12.73;8.15;;;;;;;;;;4971472;28;20054;-73
2021/11/16 09:00:54;;;;;;;10.82;7.50;;;;;;;;;;4971696;28;20054;-72
2021/11/16 09:03:33;;;;;;;9.43;7.30;;;;;;;;;;4971173;28;20047;-73
2021/11/16 09:06:01;;;;;;;12.07;7.65;;;;;;;;;;4971826;28;20042;-71
2021/11/16 09:08:34;;;;;;;8.77;7.25;;;;;;;;;;4971407;28;20037;-72
2021/11/16 09:11:09;;;;;;;11.98;7.70;;;;;;;;;;4971374;28;20086;-72
2021/11/16 09:13:35;;;;;;;10.68;7.30;;;;;;;;;;4950926;28;20038;-73
2021/11/16 09:16:07;;;;;;;8.82;6.13;;;;;;;;;;4971512;28;20412;-72
2021/11/16 09:18:38;;;;;;;10.07;7.63;;;;;;;;;;4971486;28;20646;-72
2021/11/16 09:21:08;;;;;;;11.63;7.60;;;;;;;;;;4954137;28;20089;-71
2021/11/16 09:23:46;;;;;;;10.27;7.57;;;;;;;;;;4971561;28;20046;-71
2021/11/16 09:29:21;;;;;;;9.85;8.57;;;;;;;;;;4959343;28;20055;-72
2021/11/16 09:31:52;;;;;;;9.90;7.72;;;;;;;;;;4961668;28;20065;-72
2021/11/16 09:34:18;;;;;;;9.50;8.00;;;;;;;;;;4961371;28;20055;-73
2021/11/16 09:37:08;;;;;;;9.40;6.85;;;;;;;;;;4941257;28;20039;-73
2021/11/16 09:39:49;;;;;;;11.85;8.98;;;;;;;;;;4960380;28;20047;-72
2021/11/16 09:42:28;;;;;;;9.95;7.50;;;;;;;;;;4962558;28;20047;-72
2021/11/16 09:45:04;;;;;;;8.63;7.07;;;;;;;;;;4962480;28;20125;-72
2021/11/16 09:47:36;;;;;;;8.10;6.50;;;;;;;;;;4949273;28;20043;-72
2021/11/16 09:50:11;;;;;;;10.05;7.45;;;;;;;;;;4974712;28;20054;-72
2021/11/16 09:52:54;;;;;;;12.40;8.05;;;;;;;;;;4936483;29;20063;-72
2021/11/16 09:55:23;;;;;;;9.95;7.78;;;;;;;;;;4936066;29;20525;-72
2021/11/16 09:58:02;;;;;;;10.10;7.78;;;;;;;;;;4933807;29;20043;-72
2021/11/16 10:00:35;;;;;;;8.45;7.00;;;;;;;;;;4935439;29;20047;-73
2021/11/16 10:03:00;;;;;;;10.23;7.30;;;;;;;;;;4935866;29;20465;-74
2021/11/16 10:05:38;;;;;;;9.50;6.85;;;;;;;;;;4936331;29;20050;-73
2021/11/16 10:08:04;;;;;;;12.65;6.45;;;;;;;;;;4936537;29;20405;-73
2021/11/16 10:10:32;;;;;;;10.88;7.68;;;;;;;;;;4935426;29;20051;-72
2021/11/16 10:13:08;;;;;;;9.15;8.10;;;;;;;;;;4935820;29;20087;-74
2021/11/16 10:15:36;;;;;;;8.57;5.90;;;;;;;;;;4936389;29;20416;-73
2021/11/16 10:18:04;;;;;;;8.15;6.65;;;;;;;;;;4935975;29;20062;-72
2021/11/16 10:20:33;;;;;;;9.85;7.70;;;;;;;;;;4934044;29;20043;-76
2021/11/16 10:23:00;;;;;;;9.35;7.18;;;;;;;;;;4936464;29;20071;-72
2021/11/16 10:25:29;;;;;;;9.77;6.68;;;;;;;;;;4935761;29;20040;-72
2021/11/16 10:27:58;;;;;;;8.73;6.50;;;;;;;;;;4936660;29;20100;-73
2021/11/16 10:30:29;;;;;;;10.57;6.78;;;;;;;;;;4936497;29;20052;-73
2021/11/16 10:33:10;;;;;;;7.32;6.47;;;;;;;;;;4935407;29;20119;-71
2021/11/16 10:35:41;;;;;;;12.10;7.13;;;;;;;;;;4936262;29;20052;-73
2021/11/16 10:38:11;;;;;;;8.32;6.53;;;;;;;;;;4935474;29;20047;-72
2021/11/16 10:40:37;;;;;;;8.23;6.32;;;;;;;;;;4950207;29;20039;-72
2021/11/16 10:43:05;;;;;;;8.70;6.38;;;;;;;;;;4955208;29;20050;-72
2021/11/16 10:45:34;;;;;;;9.20;7.15;;;;;;;;;;4954087;29;20125;-73
2021/11/16 10:48:02;;;;;;;9.43;7.07;;;;;;;;;;4953570;29;20043;-73
2021/11/16 10:50:30;;;;;;;14.20;7.88;;;;;;;;;;4957577;28;20043;-73
2021/11/16 10:53:04;;;;;;;12.73;7.85;;;;;;;;;;4973431;28;20051;-73
2021/11/16 10:55:42;;;;;;;8.60;6.85;;;;;;;;;;4946818;28;20093;-73
2021/11/16 10:58:13;;;;;;;6.97;6.25;;;;;;;;;;4953706;29;20046;-73
2021/11/16 11:00:56;;;;;;;8.30;6.80;;;;;;;;;;4954137;29;20050;-73
2021/11/16 11:03:30;;;;;;;10.52;5.90;;;;;;;;;;4951658;29;20049;-72
2021/11/16 11:06:08;;;;;;;8.75;6.63;;;;;;;;;;4954395;29;20053;-72
2021/11/16 11:08:59;;;;;;;7.63;6.03;;;;;;;;;;4953796;29;20039;-72
2021/11/16 11:11:28;;;;;;;9.90;6.10;;;;;;;;;;4954260;29;20051;-72
2021/11/16 11:14:02;;;;;;;8.02;6.28;;;;;;;;;;4954241;29;20057;-73
2021/11/16 11:16:30;;;;;;;8.32;6.18;;;;;;;;;;4953667;29;20051;-72
2021/11/16 11:18:56;;;;;;;7.90;5.85;;;;;;;;;;4954225;29;20039;-72
2021/11/16 11:21:26;;;;;;;7.88;6.35;;;;;;;;;;4954365;29;20043;-73
2021/11/16 11:23:56;;;;;;;7.00;5.47;;;;;;;;;;4952571;28;20536;-72
2021/11/16 11:26:52;;;;;;;6.70;5.80;;;;;;;;;;4953987;29;20071;-73
2021/11/16 11:29:34;;;;;;;8.30;5.82;;;;;;;;;;4953474;29;20031;-73
2021/11/16 11:32:12;;;;;;;7.97;6.20;;;;;;;;;;4936315;29;20066;-72
2021/11/16 11:34:44;;;;;;;7.80;6.78;;;;;;;;;;4954138;29;20043;-73
2021/11/16 11:37:23;;;;;;;5.82;5.18;;;;;;;;;;4953680;29;20110;-72
2021/11/16 11:39:59;;;;;;;8.55;5.68;;;;;;;;;;4954606;28;20043;-72
2021/11/16 11:42:26;;;;;;;6.57;5.40;;;;;;;;;;4954370;29;20046;-72
2021/11/16 11:45:06;;;;;;;6.88;5.88;;;;;;;;;;4952728;29;20047;-72
2021/11/16 11:47:32;;;;;;;6.57;5.32;;;;;;;;;;4949050;28;20085;-70
2021/11/16 11:49:59;;;;;;;5.78;5.13;;;;;;;;;;4953139;29;20133;-71
2021/11/16 11:52:24;;;;;;;6.60;5.80;;;;;;;;;;4972349;28;20085;-70
2021/11/16 11:54:50;;;;;;;6.90;5.70;;;;;;;;;;4972976;28;20050;-71
2021/11/16 11:57:16;;;;;;;7.50;6.80;;;;;;;;;;4973157;28;20471;-72
2021/11/16 11:59:42;;;;;;;6.57;5.85;;;;;;;;;;4972888;28;20105;-71
2021/11/16 12:02:08;;;;;;;8.05;5.80;;;;;;;;;;4967504;28;20047;-70
2021/11/16 12:04:34;;;;;;;6.40;5.80;;;;;;;;;;4953185;29;20043;-72
2021/11/16 12:07:00;;;;;;;6.43;5.65;;;;;;;;;;4953496;29;20053;-72
2021/11/16 12:09:30;;;;;;;7.32;6.57;;;;;;;;;;4951064;29;20043;-72
2021/11/16 12:11:57;;;;;;;8.15;5.78;;;;;;;;;;4953912;29;20046;-71
2021/11/16 12:14:34;;;;;;;5.82;5.20;;;;;;;;;;4953288;29;20055;-72
2021/11/16 12:17:04;;;;;;;6.95;6.28;;;;;;;;;;4952855;29;20113;-71
2021/11/16 12:19:52;;;;;;;5.28;4.53;;;;;;;;;;4953357;29;20102;-71
2021/11/16 12:22:27;;;;;;;6.32;5.65;;;;;;;;;;4932739;29;20468;-71
2021/11/16 12:25:16;;;;;;;5.35;4.80;;;;;;;;;;4933793;29;20051;-71
2021/11/16 12:27:42;;;;;;;6.00;5.38;;;;;;;;;;4934126;29;20386;-70
2021/11/16 12:30:09;;;;;;;6.28;5.15;;;;;;;;;;4930248;29;20054;-72
2021/11/16 12:32:37;;;;;;;6.72;4.72;;;;;;;;;;4934450;29;20588;-70
2021/11/16 12:35:09;;;;;;;6.50;5.90;;;;;;;;;;4932751;29;20386;-71
2021/11/16 12:37:52;;;;;;;6.40;5.60;;;;;;;;;;4933532;29;20040;-72
2021/11/16 12:40:30;;;;;;;6.53;5.93;;;;;;;;;;4934099;29;20118;-72
2021/11/16 12:43:07;;;;;;;7.25;5.97;;;;;;;;;;4934298;29;20059;-71
2021/11/16 12:45:40;;;;;;;7.95;5.82;;;;;;;;;;4932136;29;20138;-70
2021/11/16 12:48:07;;;;;;;7.25;5.82;;;;;;;;;;4933895;29;20039;-70
2021/11/16 12:50:34;;;;;;;5.38;4.32;;;;;;;;;;4948500;28;20400;-70
2021/11/16 12:53:00;;;;;;;7.03;5.85;;;;;;;;;;4949521;29;20064;-71
2021/11/16 12:55:28;;;;;;;6.95;6.30;;;;;;;;;;4952942;29;20238;-71
2021/11/16 12:57:58;;;;;;;6.95;5.95;;;;;;;;;;4953136;29;20065;-70
2021/11/16 13:00:38;;;;;;;5.63;4.07;;;;;;;;;;4952563;29;20421;-70
2021/11/16 13:03:05;;;;;;;8.90;6.00;;;;;;;;;;4953041;29;20107;-70
2021/11/16 13:05:31;;;;;;;6.85;5.97;;;;;;;;;;4935706;29;20146;-71
2021/11/16 13:07:58;;;;;;;7.72;5.55;;;;;;;;;;4951344;29;20130;-71
2021/11/16 13:10:28;;;;;;;6.97;6.28;;;;;;;;;;4952236;29;20050;-72
2021/11/16 13:13:02;;;;;;;8.75;6.63;;;;;;;;;;4952911;29;20042;-69
2021/11/16 13:15:28;;;;;;;7.63;5.50;;;;;;;;;;4937554;29;20497;-74
2021/11/16 13:18:25;;;;;;;7.65;6.75;;;;;;;;;;4956307;28;20054;-73
2021/11/16 13:21:09;;;;;;;6.97;6.20;;;;;;;;;;4938294;28;20050;-72
2021/11/16 13:23:50;;;;;;;7.75;5.53;;;;;;;;;;4950206;29;20051;-71
2021/11/16 13:26:48;;;;;;;7.32;5.10;;;;;;;;;;4955632;28;20098;-71
2021/11/16 13:29:23;;;;;;;7.05;6.35;;;;;;;;;;4964219;28;20085;-71
2021/11/16 13:32:01;;;;;;;8.02;6.88;;;;;;;;;;4967433;28;20039;-70
2021/11/16 13:34:53;;;;;;;6.85;6.15;;;;;;;;;;4965777;28;20050;-73
2021/11/16 13:37:26;;;;;;;9.45;6.63;;;;;;;;;;4946067;29;20050;-70
2021/11/16 13:40:10;;;;;;;8.65;6.65;;;;;;;;;;4956641;28;20206;-71
2021/11/16 13:42:35;;;;;;;8.07;6.35;;;;;;;;;;4962608;28;20039;-71
2021/11/16 13:45:04;;;;;;;8.02;6.57;;;;;;;;;;4948742;28;20049;-71
2021/11/16 13:47:34;;;;;;;10.02;7.32;;;;;;;;;;4966522;28;20046;-72
2021/11/16 13:50:09;;;;;;;9.55;7.20;;;;;;;;;;4948458;28;20046;-71
2021/11/16 13:52:38;;;;;;;8.77;7.22;;;;;;;;;;4956534;28;20505;-71
2021/11/16 13:55:18;;;;;;;10.27;6.35;;;;;;;;;;4946272;29;20062;-71
2021/11/16 13:57:46;;;;;;;7.22;5.97;;;;;;;;;;4954714;28;20042;-71
2021/11/16 14:00:22;;;;;;;8.65;5.68;;;;;;;;;;4965163;28;20044;-71
2021/11/16 14:03:05;;;;;;;9.38;7.45;;;;;;;;;;4968000;28;20047;-72
2021/11/16 14:05:41;;;;;;;8.05;6.15;;;;;;;;;;4967581;28;20042;-70
2021/11/16 14:08:12;;;;;;;10.07;6.32;;;;;;;;;;4967949;28;20046;-70
2021/11/16 14:10:40;;;;;;;9.55;5.95;;;;;;;;;;4948962;29;20047;-72
2021/11/16 14:13:12;;;;;;;8.45;6.53;;;;;;;;;;4967710;28;20047;-71
2021/11/16 14:15:38;;;;;;;11.02;6.82;;;;;;;;;;4969708;28;20431;-70
2021/11/16 14:18:06;;;;;;;13.02;8.35;;;;;;;;;;4969595;28;20122;-74
2021/11/16 14:20:34;;;;;;;13.35;9.80;;;;;;;;;;4965908;28;20502;-70
2021/11/16 14:23:30;;;;;;;13.50;8.45;;;;;;;;;;4966744;28;20118;-71
2021/11/16 14:25:58;;;;;;;10.70;8.25;;;;;;;;;;4932025;28;20169;-70
2021/11/16 14:28:27;;;;;;;11.32;7.97;;;;;;;;;;4960225;28;20047;-72
2021/11/16 14:30:53;;;;;;;12.57;7.47;;;;;;;;;;4960737;28;20047;-72
2021/11/16 14:33:20;;;;;;;13.05;8.77;;;;;;;;;;4960568;28;20130;-72
2021/11/16 14:35:53;;;;;;;12.27;8.00;;;;;;;;;;4961946;28;20098;-72
2021/11/16 14:38:26;;;;;;;12.88;8.27;;;;;;;;;;4962884;28;20042;-72
2021/11/16 14:40:52;;;;;;;12.88;7.47;;;;;;;;;;4956490;28;20175;-72
2021/11/16 14:43:23;;;;;;;12.68;8.90;;;;;;;;;;4959211;28;20068;-73
2021/11/16 14:45:51;;;;;;;10.27;6.72;;;;;;;;;;4959214;28;20161;-70
2021/11/16 14:48:20;;;;;;;13.00;8.55;;;;;;;;;;4960174;28;20082;-72
2021/11/16 14:51:30;;;;;;;13.02;8.15;;;;;;;;;;4946023;28;20047;-72
2021/11/16 14:53:57;;;;;;;11.50;7.68;;;;;;;;;;4953965;28;20042;-71
2021/11/16 14:56:27;;;;;;;12.63;8.00;;;;;;;;;;4968072;28;20058;-72
2021/11/16 14:59:06;;;;;;;15.68;7.53;;;;;;;;;;4966841;28;20419;-70
2021/11/16 15:01:37;;;;;;;8.88;7.30;;;;;;;;;;4966969;28;20045;-72
2021/11/16 15:04:10;;;;;;;12.43;7.50;;;;;;;;;;4940463;28;20387;-74
2021/11/16 15:06:39;;;;;;;10.77;7.32;;;;;;;;;;4958817;28;20039;-72
2021/11/16 15:09:14;;;;;;;10.88;8.75;;;;;;;;;;4959026;28;20051;-71
2021/11/16 15:11:43;;;;;;;11.55;7.82;;;;;;;;;;4955178;28;20420;-72
2021/11/16 15:14:20;;;;;;;13.13;8.30;;;;;;;;;;4957804;28;20118;-71
2021/11/16 15:16:58;;;;;;;11.38;6.72;;;;;;;;;;4953397;29;20049;-72